Flight Track Log - Related Links

Times and Time Zones

All times are in EDT time to prevent confusion due to time zone crossing. See the SWA152 flight status page for this flight to view local times or setup timezone preferences in your user account.

Time Position Orientation Groundspeed Altitude Reporting Facility
EDT Latitude Longitude Course Direction KTS MPH feet Rate Location/Type
Sat 01:47:23 PM 42.9167 -78.7667 270° West 163 188 2,400  Level Buffalo TRACON
Sat 01:47:54 PM 42.8903 -78.7922 215° Southwest 191 220 3,800 3,032 Climbing Cleveland Center
Sat 01:48:56 PM 42.8225 -78.8222 198° South 238 274 7,100 3,145 Climbing Cleveland Center
Sat 01:49:58 PM 42.7589 -78.8528 199° South 263 303 10,300 2,661 Climbing Cleveland Center
Sat 01:51:00 PM 42.6800 -78.8900 199° South 303 349 12,600 2,806 Climbing Cleveland Center
Sat 01:52:02 PM 42.5786 -78.9511 204° Southwest 332 382 16,100 2,780 Climbing Cleveland Center
Sat 01:53:03 PM 42.4908 -79.0217 211° Southwest 363 418 18,300 2,293 Climbing Cleveland Center
Sat 01:54:05 PM 42.3950 -79.0964 210° Southwest 379 436 20,800 2,371 Climbing Cleveland Center
Sat 01:55:07 PM 42.2931 -79.1561 203° Southwest 403 464 23,200 2,129 Climbing Cleveland Center
Sat 01:56:09 PM 42.1833 -79.1886 192° South 407 468 25,200 1,790 Climbing Cleveland Center
Sat 01:57:11 PM 42.0689 -79.2217 192° South 420 483 26,900 1,707 Climbing Cleveland Center
Sat 01:58:12 PM 41.9539 -79.2547 192° South 426 490 28,700 2,244 Climbing Cleveland Center
Sat 01:59:14 PM 41.8164 -79.2961 193° South 426 490 31,500 1,597 Climbing Cleveland Center
Sat 02:00:16 PM 41.7042 -79.3306 193° South 420 483 32,000 968 Climbing Cleveland Center
Sat 02:01:18 PM 41.5881 -79.3653 193° South 428 493 33,500 1,694 Climbing Cleveland Center
Sat 02:02:20 PM 41.4783 -79.3961 192° South 414 476 35,500 1,597 Climbing Cleveland Center
Sat 02:03:22 PM 41.3608 -79.4300 192° South 404 465 36,800 1,024 Climbing Cleveland Center
Sat 02:04:23 PM 41.2503 -79.4622 192° South 405 466 37,600 585 Climbing Cleveland Center
Sat 02:05:25 PM 41.1367 -79.4953 192° South 411 473 38,000 194 Climbing Cleveland Center
Sat 02:06:27 PM 41.0217 -79.5275 192° South 417 480 38,000  Level Cleveland Center
Sat 02:07:29 PM 40.9083 -79.5600 192° South 419 482 38,000  Level Cleveland Center
Sat 02:08:30 PM 40.7728 -79.5986 192° South 418 481 38,000  Level Cleveland Center
Sat 02:09:32 PM 40.6603 -79.6300 192° South 416 479 38,000  Level Cleveland Center
Sat 02:10:34 PM 40.5472 -79.6617 192° South 415 478 38,000  Level Cleveland Center
Sat 02:11:36 PM 40.4342 -79.6931 192° South 414 476 38,000  Level Cleveland Center
Sat 02:12:38 PM 40.3175 -79.7119 187° South 424 488 38,000  Level Cleveland Center
Sat 02:13:39 PM 40.1994 -79.7211 183° South 424 488 38,000  Level Cleveland Center
Sat 02:14:41 PM 40.0814 -79.7292 183° South 422 486 38,000  Level Cleveland Center
Sat 02:15:43 PM 39.9650 -79.7383 183° South 419 482 38,000  Level Cleveland Center
Sat 02:16:45 PM 39.8478 -79.7472 183° South 418 481 38,000  Level Cleveland Center
Sat 02:17:46 PM 39.7089 -79.7581 183° South 417 480 38,000  Level Cleveland Center
Sat 02:18:48 PM 39.5989 -79.7972 195° South 408 470 38,000  Level Cleveland Center
Sat 02:19:50 PM 39.4892 -79.8397 197° South 409 471 38,000  Level Cleveland Center
Sat 02:20:51 PM 39.3794 -79.8811 196° South 410 472 38,000  Level Cleveland Center
Sat 02:21:53 PM 39.2692 -79.9217 196° South 410 472 38,000  Level Cleveland Center
Sat 02:22:55 PM 39.1583 -79.9625 196° South 412 474 38,000  Level Cleveland Center
Sat 02:23:56 PM 39.0461 -80.0053 196° South 415 478 38,000  Level Cleveland Center
Sat 02:24:58 PM 38.9103 -80.0547 196° South 422 486 38,000  Level Cleveland Center
Sat 02:26:00 PM 38.7983 -80.0958 196° South 421 484 38,000  Level Cleveland Center
Sat 02:27:01 PM 38.6867 -80.1361 196° South 418 481 38,000  Level Cleveland Center
Sat 02:28:03 PM 38.5756 -80.1781 196° South 416 479 38,000  Level Cleveland Center
Sat 02:29:05 PM 38.4647 -80.2183 196° South 416 479 38,000  Level Cleveland Center
Sat 02:30:06 PM 38.3536 -80.2597 196° South 416 479 38,000  Level Cleveland Center
Sat 02:31:08 PM 38.2422 -80.3000 196° South 416 479 38,000  Level Cleveland Center
Sat 02:32:09 PM 38.1114 -80.3469 196° South 416 479 38,000  Level Cleveland Center
Sat 02:33:21 PM 37.9936 -80.3981 199° South 425 489 38,000  Level Washington Center
Sat 02:34:22 PM 37.8833 -80.4383 196° South 425 489 38,000  Level Washington Center
Sat 02:36:50 PM 37.5936 -80.5344 195° South 413 475 38,000  Level Atlanta Center
Sat 02:37:52 PM 37.4839 -80.5736 196° South 413 475 38,000  Level Atlanta Center
Sat 02:38:54 PM 37.3731 -80.6122 195° South 414 476 38,000  Level Atlanta Center
Sat 02:39:56 PM 37.2614 -80.6522 196° South 418 481 38,000  Level Atlanta Center
Sat 02:40:59 PM 37.1500 -80.6906 195° South 419 482 38,000  Level Atlanta Center
Sat 02:42:01 PM 37.0122 -80.7214 190° South 419 482 38,000  Level Atlanta Center
Sat 02:43:03 PM 36.8947 -80.7342 185° South 424 488 38,000  Level Atlanta Center
Sat 02:44:05 PM 36.7778 -80.7467 185° South 424 488 38,000  Level Atlanta Center
Sat 02:45:07 PM 36.6553 -80.7606 185° South 423 487 38,000  Level Atlanta Center
Sat 02:46:09 PM 36.5383 -80.7733 185° South 422 486 38,000  Level Atlanta Center
Sat 02:47:12 PM 36.4206 -80.7847 184° South 422 486 38,000  Level Atlanta Center
Sat 02:48:14 PM 36.3028 -80.7981 185° South 423 487 38,000  Level Atlanta Center
Sat 02:49:16 PM 36.1850 -80.8119 185° South 424 488 38,000  Level Atlanta Center
Sat 02:50:18 PM 36.0425 -80.8264 185° South 425 489 38,000  Level Atlanta Center
Sat 02:51:20 PM 35.9239 -80.8397 185° South 427 491 38,000  Level Atlanta Center
Sat 02:52:22 PM 35.8022 -80.8514 184° South 432 497 38,000  Level Atlanta Center
Sat 02:53:25 PM 35.6803 -80.8633 185° South 433 498 38,000  Level Atlanta Center
Sat 02:54:27 PM 35.5572 -80.8764 185° South 437 503 38,000  Level Atlanta Center
Sat 02:55:29 PM 35.4336 -80.8886 185° South 439 505 38,000  Level Atlanta Center
Sat 02:56:31 PM 35.3117 -80.9028 185° South 438 504 38,000  Level Atlanta Center
Sat 02:57:33 PM 35.1681 -80.9178 185° South 432 497 38,000  Level Atlanta Center
Sat 02:58:35 PM 35.0492 -80.9292 184° South 428 493 38,000  Level Atlanta Center
Sat 02:59:38 PM 34.9306 -80.9422 185° South 428 493 38,000  Level Atlanta Center
Sat 03:00:40 PM 34.8106 -80.9547 185° South 429 494 38,000  Level Atlanta Center
Sat 03:01:42 PM 34.6908 -80.9661 184° South 429 494 38,000  Level Atlanta Center
Sat 03:02:20 PM 34.5939 -80.9833 188° South 435 501 38,000  Level Jacksonville Center
Sat 03:03:20 PM 34.5003 -81.0056 191° South 435 501 38,000  Level Jacksonville Center
Sat 03:04:20 PM 34.3842 -81.0508 198° South 423 487 38,000  Level Jacksonville Center
Sat 03:05:20 PM 34.2783 -81.0933 198° South 418 481 38,000  Level Jacksonville Center
Sat 03:06:20 PM 34.1706 -81.1381 199° South 410 472 38,000  Level Jacksonville Center
Sat 03:07:20 PM 34.0628 -81.1806 198° South 405 466 38,000  Level Jacksonville Center
Sat 03:08:20 PM 33.9547 -81.2250 199° South 405 466 38,000  Level Jacksonville Center
Sat 03:09:20 PM 33.8447 -81.2672 198° South 405 466 38,000  Level Jacksonville Center
Sat 03:10:20 PM 33.7389 -81.3142 200° South 405 466 38,000  Level Jacksonville Center
Sat 03:11:20 PM 33.6206 -81.3611 198° South 405 466 38,000  Level Jacksonville Center
Sat 03:12:20 PM 33.5269 -81.3925 196° South 405 466 38,000  Level Jacksonville Center
Sat 03:13:20 PM 33.4169 -81.4369 199° South 405 466 38,000  Level Jacksonville Center
Sat 03:14:20 PM 33.3108 -81.4783 198° South 405 466 38,000  Level Jacksonville Center
Sat 03:15:20 PM 33.2031 -81.5272 201° Southwest 405 466 38,000  Level Jacksonville Center
Sat 03:16:20 PM 33.0906 -81.5686 197° South 410 472 38,000  Level Jacksonville Center
Sat 03:17:20 PM 32.9825 -81.6122 199° South 410 472 38,000  Level Jacksonville Center
Sat 03:18:20 PM 32.8744 -81.6558 199° South 416 479 38,000  Level Jacksonville Center
Sat 03:19:20 PM 32.7642 -81.6919 195° South 416 479 38,000  Level Jacksonville Center
Sat 03:20:20 PM 32.6561 -81.7403 201° Southwest 416 479 38,000  Level Jacksonville Center
Sat 03:21:20 PM 32.5397 -81.7886 199° South 416 479 38,000  Level Jacksonville Center
Sat 03:22:20 PM 32.4439 -81.8342 202° Southwest 411 473 38,000  Level Jacksonville Center
Sat 03:23:20 PM 32.3275 -81.8919 203° Southwest 417 480 38,000  Level Jacksonville Center
Sat 03:24:20 PM 32.2214 -81.9472 204° Southwest 418 481 38,000  Level Jacksonville Center
Sat 03:25:20 PM 32.1278 -81.9972 204° Southwest 418 481 38,000  Level Jacksonville Center
Sat 03:26:20 PM 32.0072 -82.0425 198° South 418 481 38,000  Level Jacksonville Center
Sat 03:27:20 PM 31.9050 -82.0753 195° South 423 487 38,000  Level Jacksonville Center
Sat 03:28:20 PM 31.7800 -82.1203 197° South 423 487 38,000  Level Jacksonville Center
Sat 03:29:20 PM 31.6697 -82.1578 196° South 423 487 38,000  Level Jacksonville Center
Sat 03:30:20 PM 31.5653 -82.1953 197° South 423 487 38,000  Level Jacksonville Center
Sat 03:31:20 PM 31.4528 -82.2375 198° South 423 487 38,000  Level Jacksonville Center
Sat 03:32:20 PM 31.3383 -82.2747 196° South 423 487 38,000  Level Jacksonville Center
Sat 03:33:20 PM 31.2236 -82.3119 196° South 423 487 38,000  Level Jacksonville Center
Sat 03:34:20 PM 31.1111 -82.3514 197° South 423 487 38,000  Level Jacksonville Center
Sat 03:35:20 PM 30.9942 -82.3886 195° South 429 494 38,000  Level Jacksonville Center
Sat 03:36:20 PM 30.8753 -82.4303 197° South 440 506 38,000  Level Jacksonville Center
Sat 03:37:20 PM 30.7606 -82.4694 196° South 434 499 38,000  Level Jacksonville Center
Sat 03:38:20 PM 30.6417 -82.5111 197° South 434 499 38,000  Level Jacksonville Center
Sat 03:39:20 PM 30.5250 -82.5478 195° South 434 499 38,000 -450 Level Jacksonville Center
Sat 03:40:20 PM 30.3997 -82.5336 174° South 434 499 37,100 -900 Descending Jacksonville Center
Sat 03:41:20 PM 30.2742 -82.5078 170° South 445 512 36,200 -978 Descending Jacksonville Center
Sat 03:43:18 PM 30.0133 -82.4483 169° South 457 526 34,200 -1,193 Descending Miami Center
Sat 03:44:21 PM 29.8878 -82.4222 170° South 457 526 32,600 -1,967 Descending Miami Center
Sat 03:45:20 PM 29.7625 -82.3925 168° South 455 524 30,200 -2,420 Descending Jacksonville Center
Sat 03:46:20 PM 29.6392 -82.3692 171° South 455 524 27,800 -1,700 Descending Jacksonville Center
Sat 03:47:20 PM 29.5158 -82.3508 173° South 450 518 26,800 -1,450 Descending Jacksonville Center
Sat 03:48:20 PM 29.4031 -82.3347 173° South 439 505 24,900 -2,050 Descending Jacksonville Center
Sat 03:49:20 PM 29.2883 -82.3236 175° South 425 489 22,700 -2,200 Descending Jacksonville Center
Sat 03:50:20 PM 29.1756 -82.3100 174° South 420 483 20,500 -2,100 Descending Jacksonville Center
Sat 03:51:20 PM 29.0669 -82.2986 175° South 410 472 18,500 -2,000 Descending Jacksonville Center
Sat 03:52:20 PM 28.9625 -82.2828 172° South 398 458 16,500 -2,050 Descending Jacksonville Center
Sat 03:53:20 PM 28.8622 -82.2714 174° South 382 440 14,400 -1,200 Descending Jacksonville Center
Sat 03:55:45 PM 28.6436 -82.2567 177° South 309 356 12,400 -957 Descending Miami Center
Sat 03:56:47 PM 28.5589 -82.2569 180° South 308 354 11,100 -1,258 Descending Miami Center
Sat 03:57:49 PM 28.4767 -82.2764 192° South 305 351 9,800 -1,359 Descending Miami Center
Sat 03:58:55 PM 28.3833 -82.3000 193° South 291 335 8,200 -1,429 Descending Tampa TRACON
Sat 03:59:55 PM 28.3000 -82.3167 190° South 284 327 6,800 -1,400 Descending Tampa TRACON
Sat 04:00:55 PM 28.2833 -82.4000 257° West 273 314 5,400 -1,150 Descending Tampa TRACON
Sat 04:01:55 PM 28.2667 -82.4833 257° West 239 275 4,500 -1,158 Descending Tampa TRACON
Sat 04:02:49 PM 28.2333 -82.5167 221° Southwest 217 250 3,200 -789 Descending Tampa TRACON
Sat 04:03:49 PM 28.1667 -82.5167 180° South 226 260 3,000 -550 Descending Tampa TRACON
Sat 04:04:49 PM 28.1000 -82.5333 192° South 225 259 2,100 -900 Descending Tampa TRACON
Sat 04:05:49 PM 28.0500 -82.5333 180° South 191 220 1,200 -850 Descending Tampa TRACON
Sat 04:06:49 PM 28.0000 -82.5333 180° South 136 157 400 -800 Descending Tampa TRACON

Login

Don't have an account? Register now (free) for customized features, flight alerts, and more!